Time;durP1;ratioP1;P1;durP2;ratioP2;P2;SDS_P1;SDS_P2;PMS_P1;PMS_P2;Temp;Humidity;BMP_temperature;BMP_pressure;BME280_temperature;BME280_humidity;BME280_pressure;Samples;Min_cycle;Max_cycle;Signal;HPM_P1;HPM_P2
2022/03/29 00:01:36;;;;;;;20.02;13.95;;;;;;;;;;5056063;28;20044;-26
2022/03/29 00:04:02;;;;;;;20.40;15.30;;;;;;;;;;5052184;28;20033;-27
2022/03/29 00:06:28;;;;;;;22.45;15.07;;;;;;;;;;5051837;28;20120;-26
2022/03/29 00:08:56;;;;;;;20.15;15.05;;;;;;;;;;5071534;28;20072;-25
2022/03/29 00:11:22;;;;;;;21.05;15.27;;;;;;;;;;5054302;28;20033;-25
2022/03/29 00:13:48;;;;;;;20.60;14.68;;;;;;;;;;5064100;28;20036;-27
2022/03/29 00:16:14;;;;;;;20.23;15.15;;;;;;;;;;5072069;28;20497;-26
2022/03/29 00:18:40;;;;;;;19.65;14.85;;;;;;;;;;5053887;28;20126;-26
2022/03/29 00:21:06;;;;;;;22.42;15.85;;;;;;;;;;5065581;28;20067;-27
2022/03/29 00:23:33;;;;;;;21.23;14.88;;;;;;;;;;5052326;28;20506;-25
2022/03/29 00:25:59;;;;;;;20.98;14.70;;;;;;;;;;5055948;28;20127;-25
2022/03/29 00:28:25;;;;;;;20.08;14.70;;;;;;;;;;5072139;28;20167;-25
2022/03/29 00:30:51;;;;;;;20.98;14.35;;;;;;;;;;5060248;28;20383;-26
2022/03/29 00:33:18;;;;;;;20.85;15.60;;;;;;;;;;5058768;28;20024;-26
2022/03/29 00:35:44;;;;;;;19.70;14.02;;;;;;;;;;5070617;28;20486;-27
2022/03/29 00:38:10;;;;;;;21.33;15.38;;;;;;;;;;5016647;28;1054535;-25
2022/03/29 00:40:36;;;;;;;21.88;14.52;;;;;;;;;;5071638;28;20052;-26
2022/03/29 00:43:02;;;;;;;21.55;14.68;;;;;;;;;;5063930;28;20466;-25
2022/03/29 00:45:29;;;;;;;23.08;15.50;;;;;;;;;;5062826;28;20112;-28
2022/03/29 00:47:55;;;;;;;21.02;15.32;;;;;;;;;;5060711;28;20491;-25
2022/03/29 00:50:21;;;;;;;20.80;15.90;;;;;;;;;;5056610;28;20039;-27
2022/03/29 00:52:48;;;;;;;22.17;15.32;;;;;;;;;;5072144;28;20044;-25
2022/03/29 00:55:15;;;;;;;26.08;17.13;;;;;;;;;;5067366;28;20120;-25
2022/03/29 00:57:42;;;;;;;21.95;15.95;;;;;;;;;;5052423;28;20045;-25
2022/03/29 01:00:08;;;;;;;25.75;16.50;;;;;;;;;;5054554;28;20506;-26
2022/03/29 01:02:35;;;;;;;20.45;15.70;;;;;;;;;;5072199;28;20079;-25
2022/03/29 01:05:01;;;;;;;23.80;16.15;;;;;;;;;;5070757;28;20486;-26
2022/03/29 01:07:27;;;;;;;24.63;17.25;;;;;;;;;;5062474;28;20438;-25
2022/03/29 01:09:54;;;;;;;24.33;17.05;;;;;;;;;;5066777;28;20110;-27
2022/03/29 01:12:22;;;;;;;23.23;17.08;;;;;;;;;;5062354;28;20186;-27
2022/03/29 01:14:48;;;;;;;25.00;17.35;;;;;;;;;;5051832;28;20061;-27
2022/03/29 01:19:59;;;;;;;29.42;20.20;;;;;;;;;;5068026;28;20040;-27
2022/03/29 01:22:26;;;;;;;28.58;20.30;;;;;;;;;;5071384;28;20401;-26
2022/03/29 01:24:52;;;;;;;28.17;21.08;;;;;;;;;;5055881;28;20406;-25
2022/03/29 01:27:19;;;;;;;30.50;21.95;;;;;;;;;;5051748;28;20063;-26
2022/03/29 01:29:45;;;;;;;27.13;19.92;;;;;;;;;;5053171;28;20037;-27
2022/03/29 01:32:11;;;;;;;29.23;21.38;;;;;;;;;;5067623;28;20120;-26
2022/03/29 01:34:40;;;;;;;26.60;20.75;;;;;;;;;;5057318;28;20055;-26
2022/03/29 01:37:06;;;;;;;31.48;21.17;;;;;;;;;;5052054;28;20064;-26
2022/03/29 01:39:33;;;;;;;29.65;20.98;;;;;;;;;;5056430;28;20102;-25
2022/03/29 01:41:59;;;;;;;30.13;21.65;;;;;;;;;;5051815;28;20099;-25
2022/03/29 01:44:25;;;;;;;28.05;20.95;;;;;;;;;;5051773;28;20045;-26
2022/03/29 01:46:52;;;;;;;28.92;20.45;;;;;;;;;;5054722;28;20071;-25
2022/03/29 01:49:18;;;;;;;29.70;21.20;;;;;;;;;;5071555;28;20563;-26
2022/03/29 01:51:45;;;;;;;30.52;22.15;;;;;;;;;;5071548;28;20047;-25
2022/03/29 01:54:11;;;;;;;30.23;20.58;;;;;;;;;;5063180;28;20041;-26
2022/03/29 01:56:37;;;;;;;30.55;21.27;;;;;;;;;;5051311;28;20047;-27
2022/03/29 01:59:07;;;;;;;28.05;20.23;;;;;;;;;;5033455;28;20280;-26
2022/03/29 02:01:40;;;;;;;29.27;20.95;;;;;;;;;;5062289;28;20044;-25
2022/03/29 02:04:06;;;;;;;26.67;20.23;;;;;;;;;;5061020;28;20474;-26
2022/03/29 02:06:32;;;;;;;26.77;19.15;;;;;;;;;;5050851;28;20073;-26
2022/03/29 02:08:59;;;;;;;29.00;20.40;;;;;;;;;;5062200;28;20436;-27
2022/03/29 02:11:26;;;;;;;32.33;21.10;;;;;;;;;;5071504;28;20040;-25
2022/03/29 02:13:52;;;;;;;32.67;21.38;;;;;;;;;;5068540;28;20093;-28
2022/03/29 02:16:18;;;;;;;29.50;20.85;;;;;;;;;;5062340;28;20047;-28
2022/03/29 02:18:44;;;;;;;27.35;20.02;;;;;;;;;;5068069;28;20047;-26
2022/03/29 02:21:13;;;;;;;28.83;19.85;;;;;;;;;;5075150;28;20058;-25
2022/03/29 02:23:39;;;;;;;27.00;18.88;;;;;;;;;;5063598;28;20436;-28
2022/03/29 02:26:05;;;;;;;30.73;21.08;;;;;;;;;;5055151;28;20152;-29
2022/03/29 02:28:31;;;;;;;29.00;19.63;;;;;;;;;;5054464;28;20076;-26
2022/03/29 02:30:57;;;;;;;25.83;18.63;;;;;;;;;;5054935;28;20475;-25
2022/03/29 02:33:23;;;;;;;23.20;17.90;;;;;;;;;;5055171;28;20458;-26
2022/03/29 02:35:49;;;;;;;26.00;18.80;;;;;;;;;;5055208;28;20136;-26
2022/03/29 02:38:18;;;;;;;26.58;18.88;;;;;;;;;;5054938;28;20576;-26
2022/03/29 02:40:44;;;;;;;26.13;18.55;;;;;;;;;;5055034;28;20047;-27
2022/03/29 02:43:10;;;;;;;30.42;19.40;;;;;;;;;;5054681;28;20049;-26
2022/03/29 02:45:36;;;;;;;26.55;18.58;;;;;;;;;;5054400;28;20045;-26
2022/03/29 02:48:03;;;;;;;29.23;19.38;;;;;;;;;;5054767;28;20044;-26
2022/03/29 02:50:29;;;;;;;28.27;18.95;;;;;;;;;;5054700;28;20041;-26
2022/03/29 02:52:56;;;;;;;27.45;18.83;;;;;;;;;;5054957;28;20041;-26
2022/03/29 02:55:26;;;;;;;28.13;19.63;;;;;;;;;;5054762;28;20128;-27
2022/03/29 02:57:53;;;;;;;30.13;19.13;;;;;;;;;;5054792;28;20044;-26
2022/03/29 03:00:20;;;;;;;28.00;19.75;;;;;;;;;;5054669;28;20532;-26
2022/03/29 03:02:50;;;;;;;24.65;18.70;;;;;;;;;;5054774;28;20106;-26
2022/03/29 03:05:16;;;;;;;26.52;18.27;;;;;;;;;;5053971;28;20050;-30
2022/03/29 03:07:43;;;;;;;25.73;17.95;;;;;;;;;;5053525;28;20495;-27
2022/03/29 03:10:10;;;;;;;26.95;19.50;;;;;;;;;;5053346;28;20083;-28
2022/03/29 03:12:36;;;;;;;25.33;17.45;;;;;;;;;;5053927;28;20033;-29
2022/03/29 03:15:03;;;;;;;27.25;18.70;;;;;;;;;;5054236;28;20037;-33
2022/03/29 03:17:29;;;;;;;25.45;18.20;;;;;;;;;;5042062;28;20048;-30
2022/03/29 03:19:55;;;;;;;29.70;20.00;;;;;;;;;;5061710;28;20037;-29
2022/03/29 03:22:21;;;;;;;25.80;18.63;;;;;;;;;;5053701;28;20049;-30
2022/03/29 03:24:47;;;;;;;27.77;18.63;;;;;;;;;;5067937;28;20037;-29
2022/03/29 03:27:16;;;;;;;26.88;18.77;;;;;;;;;;5053687;28;20192;-25
2022/03/29 03:29:42;;;;;;;27.02;19.00;;;;;;;;;;5069003;28;20043;-28
2022/03/29 03:32:08;;;;;;;28.20;19.20;;;;;;;;;;5060562;28;20033;-26
2022/03/29 03:34:35;;;;;;;27.25;18.58;;;;;;;;;;5069056;28;20518;-26
2022/03/29 03:37:03;;;;;;;25.25;18.23;;;;;;;;;;5073922;28;20541;-28
2022/03/29 03:39:33;;;;;;;30.58;19.20;;;;;;;;;;5073888;28;20475;-28
2022/03/29 03:41:59;;;;;;;27.33;19.17;;;;;;;;;;5073720;28;20048;-27
2022/03/29 03:44:26;;;;;;;25.77;18.88;;;;;;;;;;5073576;28;20056;-25
2022/03/29 03:46:52;;;;;;;27.10;18.92;;;;;;;;;;5073425;28;20098;-25
2022/03/29 03:49:18;;;;;;;25.50;18.90;;;;;;;;;;5073521;28;20033;-25
2022/03/29 03:51:44;;;;;;;26.00;19.20;;;;;;;;;;5073618;28;20093;-26
2022/03/29 03:54:10;;;;;;;25.02;17.42;;;;;;;;;;5073420;28;20122;-26
2022/03/29 03:56:36;;;;;;;27.95;19.48;;;;;;;;;;5073415;28;20047;-26
2022/03/29 03:59:03;;;;;;;29.27;19.90;;;;;;;;;;5073290;28;20142;-26
2022/03/29 04:01:29;;;;;;;26.98;19.05;;;;;;;;;;5073458;28;20058;-27
2022/03/29 04:03:55;;;;;;;23.55;17.70;;;;;;;;;;5073220;28;20036;-26
2022/03/29 04:06:21;;;;;;;28.30;18.85;;;;;;;;;;5073138;28;20517;-25
2022/03/29 04:08:47;;;;;;;29.35;19.48;;;;;;;;;;5072878;28;20068;-26
2022/03/29 04:11:13;;;;;;;28.25;18.45;;;;;;;;;;5072912;28;20037;-27
2022/03/29 04:13:39;;;;;;;27.45;19.20;;;;;;;;;;5072685;28;20086;-26
2022/03/29 04:16:05;;;;;;;27.13;18.40;;;;;;;;;;5072559;28;20047;-26
2022/03/29 04:18:31;;;;;;;27.88;18.33;;;;;;;;;;5072763;28;20041;-26
2022/03/29 04:20:58;;;;;;;29.52;19.70;;;;;;;;;;5072555;28;20051;-25
2022/03/29 04:23:24;;;;;;;29.15;18.83;;;;;;;;;;5073106;28;20086;-26
2022/03/29 04:25:50;;;;;;;28.95;19.15;;;;;;;;;;5072643;28;20123;-25
2022/03/29 04:28:16;;;;;;;26.48;17.70;;;;;;;;;;5073009;28;20465;-27
2022/03/29 04:30:42;;;;;;;30.85;18.77;;;;;;;;;;5072772;28;20047;-27
2022/03/29 04:33:08;;;;;;;27.65;18.52;;;;;;;;;;5055026;28;20045;-27
2022/03/29 04:35:34;;;;;;;27.45;18.75;;;;;;;;;;5072825;28;20135;-25
2022/03/29 04:38:00;;;;;;;29.58;18.15;;;;;;;;;;5072515;28;20041;-26
2022/03/29 04:40:26;;;;;;;27.52;18.52;;;;;;;;;;5072759;28;20072;-27
2022/03/29 04:42:53;;;;;;;28.95;19.13;;;;;;;;;;5071264;28;20102;-29
2022/03/29 04:45:20;;;;;;;28.23;18.25;;;;;;;;;;5070074;28;20498;-26
2022/03/29 04:47:47;;;;;;;28.52;19.30;;;;;;;;;;5071251;28;20052;-27
2022/03/29 04:50:14;;;;;;;28.85;18.70;;;;;;;;;;5072429;28;20051;-25
2022/03/29 04:52:44;;;;;;;29.80;19.27;;;;;;;;;;5070397;28;20123;-26
2022/03/29 04:55:10;;;;;;;27.92;18.35;;;;;;;;;;5072248;28;20045;-25
2022/03/29 04:57:36;;;;;;;30.08;18.30;;;;;;;;;;5072569;28;20089;-26
2022/03/29 05:00:04;;;;;;;31.33;19.05;;;;;;;;;;5072399;28;20047;-27
2022/03/29 05:02:31;;;;;;;28.30;19.65;;;;;;;;;;5072451;28;20066;-25
2022/03/29 05:04:57;;;;;;;28.17;18.60;;;;;;;;;;5072067;28;20053;-25
2022/03/29 05:07:23;;;;;;;27.77;17.88;;;;;;;;;;5071796;28;20072;-26
2022/03/29 05:09:50;;;;;;;29.98;19.02;;;;;;;;;;5071998;28;20413;-26
2022/03/29 05:12:16;;;;;;;32.75;19.27;;;;;;;;;;5071908;28;20079;-27
2022/03/29 05:14:43;;;;;;;30.08;19.27;;;;;;;;;;5070792;28;20040;-26
2022/03/29 05:17:09;;;;;;;28.92;19.77;;;;;;;;;;5071998;28;20644;-27
2022/03/29 05:19:35;;;;;;;27.80;18.52;;;;;;;;;;5071250;28;20064;-26
2022/03/29 05:22:02;;;;;;;31.17;19.30;;;;;;;;;;5070130;28;20040;-28
2022/03/29 05:24:28;;;;;;;29.45;18.83;;;;;;;;;;5069089;28;20403;-26
2022/03/29 05:26:54;;;;;;;29.67;18.38;;;;;;;;;;5069051;28;20072;-26
2022/03/29 05:29:20;;;;;;;29.27;19.38;;;;;;;;;;5068678;28;20072;-28
2022/03/29 05:31:46;;;;;;;31.13;18.70;;;;;;;;;;5068387;28;20044;-28
2022/03/29 05:34:15;;;;;;;29.00;18.70;;;;;;;;;;5068245;28;20070;-26
2022/03/29 05:36:44;;;;;;;26.63;18.58;;;;;;;;;;5071478;28;20068;-26
2022/03/29 05:39:13;;;;;;;27.88;18.27;;;;;;;;;;5071128;28;20040;-27
2022/03/29 05:41:40;;;;;;;28.83;19.13;;;;;;;;;;5071082;28;20043;-26
2022/03/29 05:44:06;;;;;;;27.50;17.80;;;;;;;;;;5071291;28;20490;-26
2022/03/29 05:49:16;;;;;;;27.67;18.90;;;;;;;;;;5071440;28;20083;-26
2022/03/29 05:51:42;;;;;;;28.02;18.15;;;;;;;;;;5071262;28;20036;-25
2022/03/29 05:54:08;;;;;;;27.33;19.00;;;;;;;;;;5071300;28;20102;-26
2022/03/29 05:56:35;;;;;;;31.08;17.77;;;;;;;;;;5053035;28;20036;-26
2022/03/29 05:59:01;;;;;;;29.33;18.77;;;;;;;;;;5071021;28;20162;-28
2022/03/29 06:01:27;;;;;;;30.40;18.98;;;;;;;;;;5071003;28;20040;-26
2022/03/29 06:03:53;;;;;;;32.75;20.70;;;;;;;;;;5071418;28;20037;-26
2022/03/29 06:06:19;;;;;;;29.92;19.50;;;;;;;;;;5070753;28;20048;-27
2022/03/29 06:08:45;;;;;;;30.38;19.63;;;;;;;;;;5071241;28;20036;-26
2022/03/29 06:11:13;;;;;;;30.08;17.98;;;;;;;;;;5071248;28;20037;-26
2022/03/29 06:13:39;;;;;;;29.23;19.13;;;;;;;;;;5071290;28;20473;-26
2022/03/29 06:16:05;;;;;;;31.95;19.95;;;;;;;;;;5071123;28;20379;-26
2022/03/29 06:18:33;;;;;;;30.63;19.80;;;;;;;;;;5070860;28;20037;-26
2022/03/29 06:20:59;;;;;;;30.60;20.23;;;;;;;;;;5070694;28;20056;-26
2022/03/29 06:23:25;;;;;;;32.42;19.60;;;;;;;;;;5071145;28;20514;-26
2022/03/29 06:25:51;;;;;;;34.47;20.25;;;;;;;;;;5070668;28;20043;-26
2022/03/29 06:28:17;;;;;;;30.60;19.08;;;;;;;;;;5071148;28;20559;-26
2022/03/29 06:30:44;;;;;;;31.60;19.90;;;;;;;;;;5070628;28;20070;-25
2022/03/29 06:33:10;;;;;;;30.55;19.15;;;;;;;;;;5071342;28;20032;-28
2022/03/29 06:35:40;;;;;;;30.50;20.67;;;;;;;;;;5071089;28;20048;-26
2022/03/29 06:38:07;;;;;;;30.67;20.58;;;;;;;;;;5070390;28;20044;-26
2022/03/29 06:40:33;;;;;;;34.97;21.55;;;;;;;;;;5070790;28;20334;-27
2022/03/29 06:43:01;;;;;;;29.80;19.80;;;;;;;;;;5052942;28;20052;-27
2022/03/29 06:45:27;;;;;;;34.13;21.63;;;;;;;;;;5070640;28;20056;-26
2022/03/29 06:47:54;;;;;;;34.80;21.70;;;;;;;;;;5070919;28;20150;-27
2022/03/29 06:50:21;;;;;;;33.63;21.17;;;;;;;;;;5070311;28;20032;-27
2022/03/29 06:52:48;;;;;;;31.33;20.85;;;;;;;;;;5052619;28;20049;-26
2022/03/29 06:55:15;;;;;;;35.08;20.27;;;;;;;;;;5070646;28;20486;-27
2022/03/29 06:57:41;;;;;;;29.15;19.88;;;;;;;;;;5070621;28;20064;-26
2022/03/29 07:00:12;;;;;;;34.95;20.80;;;;;;;;;;5070781;28;20083;-26
2022/03/29 07:02:38;;;;;;;28.90;18.92;;;;;;;;;;5070898;28;20113;-27
2022/03/29 07:05:04;;;;;;;30.27;19.77;;;;;;;;;;5071539;28;20056;-26
2022/03/29 07:07:30;;;;;;;32.65;19.45;;;;;;;;;;5074517;28;20037;-27
2022/03/29 07:12:48;;;;;;;33.63;20.58;;;;;;;;;;5073994;28;20040;-26
2022/03/29 07:15:15;;;;;;;31.42;19.92;;;;;;;;;;5074175;28;20040;-25
2022/03/29 07:17:41;;;;;;;33.92;22.00;;;;;;;;;;5074057;28;20037;-27
2022/03/29 07:20:07;;;;;;;31.98;20.98;;;;;;;;;;5073761;28;20051;-27
2022/03/29 07:22:34;;;;;;;36.50;22.80;;;;;;;;;;5074225;28;20040;-26
2022/03/29 07:25:00;;;;;;;34.13;21.40;;;;;;;;;;5074086;28;20056;-27
2022/03/29 07:27:26;;;;;;;34.92;21.85;;;;;;;;;;5074207;28;20036;-27
2022/03/29 07:29:53;;;;;;;35.70;23.30;;;;;;;;;;5073968;28;20040;-27
2022/03/29 07:32:19;;;;;;;38.92;23.08;;;;;;;;;;5073648;28;20037;-26
2022/03/29 07:34:45;;;;;;;38.67;23.60;;;;;;;;;;5073639;28;20060;-27
2022/03/29 07:37:11;;;;;;;35.90;23.50;;;;;;;;;;5073761;28;20124;-29
2022/03/29 07:39:38;;;;;;;35.70;23.05;;;;;;;;;;5073617;28;20052;-26
2022/03/29 07:42:05;;;;;;;36.42;22.00;;;;;;;;;;5073745;28;20044;-26
2022/03/29 07:44:31;;;;;;;39.63;23.42;;;;;;;;;;5074015;28;20569;-25
2022/03/29 07:46:57;;;;;;;35.30;22.90;;;;;;;;;;5073906;28;20489;-26
2022/03/29 07:49:24;;;;;;;44.05;26.38;;;;;;;;;;5073637;28;20079;-25
2022/03/29 07:51:50;;;;;;;36.13;23.08;;;;;;;;;;5073931;28;20048;-25
2022/03/29 07:54:16;;;;;;;39.33;25.30;;;;;;;;;;5073180;28;20124;-31
2022/03/29 07:56:42;;;;;;;41.13;26.80;;;;;;;;;;5055729;28;20080;-25
2022/03/29 07:59:08;;;;;;;41.45;26.13;;;;;;;;;;5073607;28;20056;-27
2022/03/29 08:01:35;;;;;;;42.33;26.63;;;;;;;;;;5073457;28;20083;-27
2022/03/29 08:04:01;;;;;;;46.20;27.05;;;;;;;;;;5072941;28;20115;-26
2022/03/29 08:06:27;;;;;;;42.85;26.80;;;;;;;;;;5072945;28;20084;-26
2022/03/29 08:08:54;;;;;;;41.90;25.60;;;;;;;;;;5055088;28;20177;-28
2022/03/29 08:11:22;;;;;;;44.13;27.08;;;;;;;;;;5073235;28;20041;-27
2022/03/29 08:13:48;;;;;;;45.70;27.40;;;;;;;;;;5072768;28;20040;-27
2022/03/29 08:16:15;;;;;;;38.42;26.80;;;;;;;;;;5072287;28;20040;-31
2022/03/29 08:18:41;;;;;;;43.60;26.98;;;;;;;;;;5072743;28;20434;-26
2022/03/29 08:21:48;;;;;;;39.05;26.15;;;;;;;;;;5073259;28;20093;-26
2022/03/29 08:23:53;;;;;;;42.45;27.02;;;;;;;;;;5073277;28;20049;-27
2022/03/29 08:26:20;;;;;;;40.38;26.40;;;;;;;;;;5072818;28;20056;-26
2022/03/29 08:28:46;;;;;;;41.03;26.95;;;;;;;;;;5073152;28;20041;-28
2022/03/29 08:31:12;;;;;;;38.22;26.05;;;;;;;;;;5073135;28;20032;-26
2022/03/29 08:33:38;;;;;;;40.83;27.27;;;;;;;;;;5073086;28;20104;-27
2022/03/29 08:36:04;;;;;;;41.97;26.42;;;;;;;;;;5072606;28;20075;-31
2022/03/29 08:38:31;;;;;;;41.97;26.50;;;;;;;;;;5054425;28;20090;-27
2022/03/29 08:40:59;;;;;;;39.03;26.10;;;;;;;;;;5072631;28;20441;-31
2022/03/29 08:43:30;;;;;;;39.92;26.30;;;;;;;;;;5071962;28;20379;-30
2022/03/29 08:45:57;;;;;;;38.47;26.95;;;;;;;;;;5054055;28;20079;-29
2022/03/29 08:48:23;;;;;;;41.60;26.33;;;;;;;;;;5072038;28;20502;-30
2022/03/29 08:50:51;;;;;;;41.72;27.38;;;;;;;;;;5072186;28;20066;-30
2022/03/29 08:53:17;;;;;;;44.05;27.38;;;;;;;;;;5072334;28;20378;-30
2022/03/29 08:55:44;;;;;;;40.67;25.80;;;;;;;;;;5071955;28;20040;-29
2022/03/29 08:58:11;;;;;;;46.30;28.08;;;;;;;;;;5053841;28;20048;-30
2022/03/29 09:00:37;;;;;;;37.45;25.67;;;;;;;;;;5071578;28;20043;-30
2022/03/29 09:03:03;;;;;;;39.95;25.52;;;;;;;;;;5070983;28;20512;-30
2022/03/29 09:05:30;;;;;;;40.50;24.92;;;;;;;;;;5071465;28;20127;-30
2022/03/29 09:07:57;;;;;;;38.20;24.75;;;;;;;;;;5071476;28;20090;-30
2022/03/29 09:10:38;;;;;;;40.17;23.77;;;;;;;;;;5071284;28;20033;-30
2022/03/29 09:13:15;;;;;;;38.15;24.30;;;;;;;;;;5071152;28;20041;-30
2022/03/29 09:15:41;;;;;;;35.90;22.80;;;;;;;;;;5071383;28;20636;-31
2022/03/29 09:18:08;;;;;;;37.65;23.83;;;;;;;;;;5071240;28;20130;-30
2022/03/29 09:20:35;;;;;;;38.45;23.70;;;;;;;;;;5071258;28;20036;-29
2022/03/29 09:23:01;;;;;;;36.95;24.05;;;;;;;;;;5070615;28;20093;-29
2022/03/29 09:25:40;;;;;;;39.65;24.60;;;;;;;;;;5070968;28;20047;-31
2022/03/29 09:28:12;;;;;;;35.42;24.48;;;;;;;;;;5070632;28;20036;-33
2022/03/29 09:30:42;;;;;;;32.67;23.65;;;;;;;;;;5071221;28;20044;-32
2022/03/29 09:33:12;;;;;;;33.72;22.73;;;;;;;;;;5070575;28;20123;-33
2022/03/29 09:35:53;;;;;;;30.92;22.65;;;;;;;;;;5071038;28;20059;-29
2022/03/29 09:38:27;;;;;;;37.47;22.83;;;;;;;;;;5070860;28;20040;-29
2022/03/29 09:40:53;;;;;;;;;;;;;;;;;;5071382;28;20116;-30
2022/03/29 09:43:20;;;;;;;30.33;22.02;;;;;;;;;;5070425;28;19969;-30
2022/03/29 09:45:51;;;;;;;33.20;23.23;;;;;;;;;;5070856;28;20040;-30
2022/03/29 09:48:24;;;;;;;39.78;24.50;;;;;;;;;;5070966;28;20071;-30
2022/03/29 09:50:56;;;;;;;36.72;22.95;;;;;;;;;;5070903;28;20085;-30
2022/03/29 09:53:41;;;;;;;36.50;23.98;;;;;;;;;;5070435;28;20041;-30
2022/03/29 09:56:10;;;;;;;32.05;23.92;;;;;;;;;;5070572;28;20040;-30
2022/03/29 09:58:36;;;;;;;32.45;23.90;;;;;;;;;;5070594;28;20045;-30
2022/03/29 10:01:03;;;;;;;34.05;22.92;;;;;;;;;;5070335;28;20048;-31
2022/03/29 10:03:31;;;;;;;30.52;23.45;;;;;;;;;;5070149;28;20070;-31
2022/03/29 10:06:01;;;;;;;31.48;23.38;;;;;;;;;;5070532;28;20524;-30
2022/03/29 10:11:23;;;;;;;35.78;23.92;;;;;;;;;;5070538;28;20494;-31
2022/03/29 10:13:49;;;;;;;29.73;23.65;;;;;;;;;;5070268;28;20051;-30
2022/03/29 10:16:16;;;;;;;40.50;25.65;;;;;;;;;;5070377;28;20127;-31
2022/03/29 10:18:44;;;;;;;34.00;24.77;;;;;;;;;;5071006;28;20493;-28
2022/03/29 10:21:11;;;;;;;32.70;24.85;;;;;;;;;;5071258;28;20040;-27
2022/03/29 10:23:37;;;;;;;33.78;25.17;;;;;;;;;;5071252;28;20045;-28
2022/03/29 10:26:03;;;;;;;32.05;25.02;;;;;;;;;;5070320;28;20044;-28
2022/03/29 10:28:30;;;;;;;31.48;22.65;;;;;;;;;;5071297;28;20605;-27
2022/03/29 10:30:56;;;;;;;31.88;24.25;;;;;;;;;;5071147;28;20036;-27
2022/03/29 10:33:23;;;;;;;29.48;23.75;;;;;;;;;;5071449;28;20474;-27
2022/03/29 10:35:59;;;;;;;35.28;23.13;;;;;;;;;;5071006;28;20066;-29
2022/03/29 10:38:49;;;;;;;34.67;23.83;;;;;;;;;;5070926;28;20041;-27
2022/03/29 10:41:31;;;;;;;26.98;21.55;;;;;;;;;;5062004;28;20056;-27
2022/03/29 10:44:04;;;;;;;29.85;20.98;;;;;;;;;;5074757;28;20044;-27
2022/03/29 10:46:49;;;;;;;25.42;19.83;;;;;;;;;;5074850;28;20624;-27
2022/03/29 10:49:32;;;;;;;26.42;20.02;;;;;;;;;;5074391;28;20058;-28
2022/03/29 10:52:04;;;;;;;26.15;18.98;;;;;;;;;;5077269;28;20033;-28
2022/03/29 10:54:37;;;;;;;24.88;20.17;;;;;;;;;;5057420;28;20045;-33
2022/03/29 10:57:07;;;;;;;24.30;19.23;;;;;;;;;;5074547;28;20118;-31
2022/03/29 10:59:37;;;;;;;24.58;18.80;;;;;;;;;;5073857;28;20037;-33
2022/03/29 11:02:06;;;;;;;25.52;18.42;;;;;;;;;;5073468;28;20063;-32
2022/03/29 11:04:33;;;;;;;27.05;17.92;;;;;;;;;;5073673;28;20075;-33
2022/03/29 11:07:06;;;;;;;22.42;18.83;;;;;;;;;;5056158;28;20045;-33
2022/03/29 11:09:32;;;;;;;24.13;16.83;;;;;;;;;;5073668;28;20039;-34
2022/03/29 11:11:58;;;;;;;25.15;17.40;;;;;;;;;;5073260;28;20041;-31
2022/03/29 11:14:31;;;;;;;25.27;18.05;;;;;;;;;;5073298;28;20064;-33
2022/03/29 11:17:09;;;;;;;25.67;18.10;;;;;;;;;;5073909;28;20044;-34
2022/03/29 11:19:47;;;;;;;24.60;19.25;;;;;;;;;;5055463;28;20350;-34
2022/03/29 11:22:22;;;;;;;22.65;17.40;;;;;;;;;;5073086;28;20220;-33
2022/03/29 11:24:52;;;;;;;23.23;17.73;;;;;;;;;;5073265;28;20079;-31
2022/03/29 11:27:28;;;;;;;23.38;18.23;;;;;;;;;;5073862;28;20116;-34
2022/03/29 11:29:55;;;;;;;24.48;18.27;;;;;;;;;;5073420;28;20157;-33
2022/03/29 11:32:22;;;;;;;20.15;17.88;;;;;;;;;;5073338;28;20040;-32
2022/03/29 11:34:51;;;;;;;22.52;17.52;;;;;;;;;;5073172;28;20071;-32
2022/03/29 11:37:28;;;;;;;20.77;18.48;;;;;;;;;;5073044;28;20044;-32
2022/03/29 11:39:54;;;;;;;23.30;18.48;;;;;;;;;;5072281;28;20444;-31
2022/03/29 11:42:21;;;;;;;22.40;17.17;;;;;;;;;;5072865;28;20044;-30
2022/03/29 11:44:48;;;;;;;25.75;18.63;;;;;;;;;;5073224;28;20379;-34
2022/03/29 11:47:14;;;;;;;19.38;15.98;;;;;;;;;;5073243;28;20392;-33
2022/03/29 11:49:41;;;;;;;22.98;17.63;;;;;;;;;;5073239;28;20383;-32
2022/03/29 11:52:13;;;;;;;21.13;16.95;;;;;;;;;;5072354;28;20056;-31
2022/03/29 11:54:40;;;;;;;22.95;17.60;;;;;;;;;;5073544;28;20497;-33
2022/03/29 11:57:15;;;;;;;19.63;16.13;;;;;;;;;;5073045;28;20036;-32
2022/03/29 11:59:42;;;;;;;21.63;16.73;;;;;;;;;;5072859;28;20094;-32
2022/03/29 12:02:08;;;;;;;25.23;16.98;;;;;;;;;;5071513;28;20455;-32
2022/03/29 12:04:36;;;;;;;20.70;16.75;;;;;;;;;;5072457;28;20036;-34
2022/03/29 12:07:02;;;;;;;20.55;16.42;;;;;;;;;;5070184;28;20041;-35
2022/03/29 12:09:30;;;;;;;24.40;16.52;;;;;;;;;;5072019;28;20033;-32
2022/03/29 12:11:56;;;;;;;21.65;16.98;;;;;;;;;;5072511;28;20041;-34
2022/03/29 12:14:23;;;;;;;19.67;16.48;;;;;;;;;;5073087;28;20044;-31
2022/03/29 12:16:51;;;;;;;24.40;16.83;;;;;;;;;;5072453;28;20048;-32
2022/03/29 12:19:18;;;;;;;19.23;16.33;;;;;;;;;;5072395;28;20047;-33
2022/03/29 12:21:45;;;;;;;19.05;16.10;;;;;;;;;;5072012;28;20079;-33
2022/03/29 12:24:12;;;;;;;18.05;15.65;;;;;;;;;;5072420;28;20037;-31
2022/03/29 12:26:39;;;;;;;20.05;15.48;;;;;;;;;;5072293;28;20076;-31
2022/03/29 12:29:07;;;;;;;20.33;16.08;;;;;;;;;;5072294;28;20059;-32
2022/03/29 12:31:34;;;;;;;19.92;16.27;;;;;;;;;;5072224;28;20047;-33
2022/03/29 12:34:00;;;;;;;19.00;15.65;;;;;;;;;;5072502;28;20123;-33
2022/03/29 12:36:26;;;;;;;19.13;16.55;;;;;;;;;;5072590;28;20036;-35
2022/03/29 12:38:54;;;;;;;17.85;15.95;;;;;;;;;;5072129;28;20047;-34
2022/03/29 12:41:37;;;;;;;20.85;15.90;;;;;;;;;;5072408;28;20048;-32
2022/03/29 12:44:04;;;;;;;20.48;15.73;;;;;;;;;;5072124;28;20044;-34
2022/03/29 12:46:30;;;;;;;19.48;16.00;;;;;;;;;;5072013;28;20055;-32
2022/03/29 12:48:57;;;;;;;21.15;16.88;;;;;;;;;;5072095;28;20064;-32
2022/03/29 12:51:30;;;;;;;22.08;17.40;;;;;;;;;;5071816;28;20097;-32
2022/03/29 12:53:57;;;;;;;19.95;15.82;;;;;;;;;;5071861;28;20071;-33
2022/03/29 12:56:30;;;;;;;20.48;14.98;;;;;;;;;;5071946;28;20478;-31
2022/03/29 12:58:56;;;;;;;19.27;16.85;;;;;;;;;;5053678;28;20124;-32
2022/03/29 13:01:26;;;;;;;19.35;15.50;;;;;;;;;;5071392;28;20044;-33
2022/03/29 13:03:52;;;;;;;17.90;16.00;;;;;;;;;;5070827;28;20040;-32
2022/03/29 13:06:18;;;;;;;19.70;15.55;;;;;;;;;;5071472;28;20044;-32
2022/03/29 13:08:44;;;;;;;22.13;16.45;;;;;;;;;;5071357;28;20043;-32
2022/03/29 13:11:19;;;;;;;20.75;16.15;;;;;;;;;;5070942;28;20048;-32
2022/03/29 13:14:01;;;;;;;18.30;16.27;;;;;;;;;;5071190;28;20040;-31
2022/03/29 13:16:28;;;;;;;19.15;15.80;;;;;;;;;;5071016;28;20099;-31
2022/03/29 13:18:54;;;;;;;21.33;16.25;;;;;;;;;;5071178;28;20040;-32
2022/03/29 13:21:26;;;;;;;19.80;17.13;;;;;;;;;;5071138;28;20044;-32
2022/03/29 13:23:57;;;;;;;20.83;15.65;;;;;;;;;;5070864;28;20044;-32
2022/03/29 13:26:24;;;;;;;19.80;15.48;;;;;;;;;;5071446;28;20048;-29
2022/03/29 13:28:52;;;;;;;23.73;16.63;;;;;;;;;;5053221;28;20045;-34
2022/03/29 13:31:19;;;;;;;21.17;15.35;;;;;;;;;;5071445;28;20044;-29
2022/03/29 13:33:46;;;;;;;20.45;15.60;;;;;;;;;;5071403;28;20048;-33
2022/03/29 13:36:14;;;;;;;21.85;14.80;;;;;;;;;;5053389;28;20044;-27
2022/03/29 13:38:41;;;;;;;18.05;13.90;;;;;;;;;;5071332;28;20442;-27
2022/03/29 13:41:08;;;;;;;18.00;14.20;;;;;;;;;;5071298;28;20135;-28
2022/03/29 13:43:35;;;;;;;22.25;15.77;;;;;;;;;;5071469;28;20528;-28
2022/03/29 13:46:01;;;;;;;21.05;14.70;;;;;;;;;;5071114;28;20037;-28
2022/03/29 13:48:29;;;;;;;19.40;15.75;;;;;;;;;;5071134;28;20037;-27
2022/03/29 13:50:56;;;;;;;20.50;14.63;;;;;;;;;;5071349;28;20111;-28
2022/03/29 13:53:22;;;;;;;16.73;14.23;;;;;;;;;;5071001;28;20044;-28
2022/03/29 13:55:48;;;;;;;18.45;13.93;;;;;;;;;;5071179;28;20132;-29
2022/03/29 13:58:14;;;;;;;17.90;13.75;;;;;;;;;;5071082;28;20053;-27
2022/03/29 14:00:41;;;;;;;17.77;14.15;;;;;;;;;;5071197;28;20036;-29
2022/03/29 14:03:08;;;;;;;20.05;13.82;;;;;;;;;;5071047;28;20051;-30
2022/03/29 14:05:38;;;;;;;18.10;13.35;;;;;;;;;;5071033;28;20082;-28
2022/03/29 14:08:04;;;;;;;18.67;13.20;;;;;;;;;;5070926;28;20043;-27
2022/03/29 14:10:30;;;;;;;20.77;12.98;;;;;;;;;;5071178;28;20040;-28
2022/03/29 14:12:58;;;;;;;17.27;12.25;;;;;;;;;;5071262;28;20114;-28
2022/03/29 14:15:24;;;;;;;16.10;11.52;;;;;;;;;;5069714;28;20044;-28
2022/03/29 14:17:50;;;;;;;18.08;13.18;;;;;;;;;;5071207;28;20385;-28
2022/03/29 14:20:16;;;;;;;17.33;12.50;;;;;;;;;;5070831;28;20040;-28
2022/03/29 14:22:44;;;;;;;15.45;11.02;;;;;;;;;;5070491;28;20044;-30
2022/03/29 14:25:11;;;;;;;14.45;11.00;;;;;;;;;;5070246;28;20052;-33
2022/03/29 14:27:37;;;;;;;14.45;10.93;;;;;;;;;;5050341;28;20044;-32
2022/03/29 14:30:06;;;;;;;17.70;11.00;;;;;;;;;;5050363;28;20570;-29